createdAt,value
2022-12-09T00:01:37.035Z,99712.22
2022-12-09T00:04:05.482Z,99727.31
2022-12-09T00:06:33.551Z,99731.78
2022-12-09T00:09:01.902Z,99732.88
2022-12-09T00:11:29.739Z,99726.31
2022-12-09T00:13:59.782Z,99732.44
2022-12-09T00:16:27.556Z,99736.22
2022-12-09T00:18:56.757Z,99734.00
2022-12-09T00:21:32.936Z,99737.75
2022-12-09T00:24:08.028Z,99734.00
2022-12-09T00:26:35.930Z,99737.75
2022-12-09T00:29:04.710Z,99731.97
2022-12-09T00:31:37.612Z,99723.53
2022-12-09T00:34:10.898Z,99723.09
2022-12-09T00:36:40.073Z,99723.09
2022-12-09T00:39:08.348Z,99716.94
2022-12-09T00:41:35.900Z,99721.53
2022-12-09T00:44:04.728Z,99726.97
2022-12-09T00:46:32.527Z,99718.75
2022-12-09T00:49:00.673Z,99715.75
2022-12-09T00:51:28.528Z,99721.09
2022-12-09T00:53:56.871Z,99714.28
2022-12-09T00:56:28.516Z,99720.88
2022-12-09T00:58:59.301Z,99727.91
2022-12-09T01:01:28.482Z,99732.22
2022-12-09T01:03:58.048Z,99727.13
2022-12-09T01:06:27.505Z,99730.91
2022-12-09T01:08:55.857Z,99736.13
2022-12-09T01:11:28.957Z,99738.91
2022-12-09T01:14:03.058Z,99739.78
2022-12-09T01:16:34.887Z,99729.44
2022-12-09T01:19:08.604Z,99727.41
2022-12-09T01:21:38.391Z,99721.75
2022-12-09T01:24:10.862Z,99719.41
2022-12-09T01:26:39.413Z,99717.31
2022-12-09T01:29:07.454Z,99717.53
2022-12-09T01:31:36.736Z,99715.53
2022-12-09T01:34:05.751Z,99714.31
2022-12-09T01:36:33.736Z,99713.13
2022-12-09T01:39:02.073Z,99707.97
2022-12-09T01:41:30.229Z,99704.41
2022-12-09T01:44:26.631Z,99703.84
2022-12-09T01:47:01.214Z,99700.16
2022-12-09T01:49:37.389Z,99705.94
2022-12-09T01:52:19.097Z,99696.59
2022-12-09T01:54:51.255Z,99693.69
2022-12-09T01:57:19.748Z,99685.44
2022-12-09T01:59:48.431Z,99681.06
2022-12-09T02:02:19.240Z,99673.59
2022-12-09T02:04:50.407Z,99681.81
2022-12-09T02:07:20.557Z,99674.63
2022-12-09T02:09:53.418Z,99664.50
2022-12-09T02:12:54.525Z,99666.16
2022-12-09T02:15:32.747Z,99667.34
2022-12-09T02:18:34.897Z,99656.75
2022-12-09T02:21:24.415Z,99648.03
2022-12-09T02:24:11.657Z,99634.34
2022-12-09T02:26:54.032Z,99638.91
2022-12-09T02:29:30.598Z,99641.59
2022-12-09T02:32:49.185Z,99646.94
2022-12-09T02:36:00.370Z,99636.91
2022-12-09T02:38:35.908Z,99646.38
2022-12-09T02:41:15.394Z,99628.47
2022-12-09T02:43:52.612Z,99639.94
2022-12-09T02:46:28.392Z,99636.03
2022-12-09T02:49:00.310Z,99631.81
2022-12-09T02:51:33.044Z,99628.00
2022-12-09T02:54:13.372Z,99621.13
2022-12-09T02:56:50.349Z,99621.78
2022-12-09T02:59:18.725Z,99630.50
2022-12-09T03:02:18.739Z,99626.97
2022-12-09T03:05:08.752Z,99623.81
2022-12-09T03:07:52.235Z,99619.63
2022-12-09T03:10:37.775Z,99614.94
2022-12-09T03:13:35.795Z,99610.69
2022-12-09T03:16:36.957Z,99603.38
2022-12-09T03:19:22.168Z,99605.59
2022-12-09T03:21:54.685Z,99612.06
2022-12-09T03:24:32.855Z,99608.72
2022-12-09T03:27:08.036Z,99611.06
2022-12-09T03:29:41.587Z,99606.16
2022-12-09T03:32:15.461Z,99608.81
2022-12-09T03:34:46.840Z,99616.50
2022-12-09T03:37:18.977Z,99612.69
2022-12-09T03:39:49.552Z,99603.13
2022-12-09T03:42:28.522Z,99601.22
2022-12-09T03:45:02.986Z,99591.31
2022-12-09T03:47:34.154Z,99595.13
2022-12-09T03:50:02.106Z,99602.00
2022-12-09T03:52:46.590Z,99592.09
2022-12-09T03:55:40.395Z,99592.09
2022-12-09T03:58:31.681Z,99583.38
2022-12-09T04:01:00.786Z,99587.59
2022-12-09T04:03:28.926Z,99589.94
2022-12-09T04:05:56.682Z,99589.94
2022-12-09T04:08:24.836Z,99580.81
2022-12-09T04:10:52.703Z,99583.13
2022-12-09T04:13:20.559Z,99591.59
2022-12-09T04:15:48.475Z,99579.41
2022-12-09T04:18:16.388Z,99579.84
2022-12-09T04:20:44.055Z,99571.91
2022-12-09T04:23:12.033Z,99565.13
2022-12-09T04:25:39.672Z,99564.00
2022-12-09T04:28:07.607Z,99554.50
2022-12-09T04:30:35.174Z,99558.41
2022-12-09T04:33:22.224Z,99562.28
2022-12-09T04:35:49.901Z,99568.84
2022-12-09T04:38:18.077Z,99572.72
2022-12-09T04:40:45.621Z,99570.13
2022-12-09T04:43:13.498Z,99570.13
2022-12-09T04:45:41.371Z,99567.09
2022-12-09T04:48:10.259Z,99562.53
2022-12-09T04:50:41.872Z,99567.19
2022-12-09T04:53:09.808Z,99566.06
2022-12-09T04:55:37.777Z,99556.47
2022-12-09T04:58:05.824Z,99556.47
2022-12-09T05:00:33.872Z,99558.06
2022-12-09T05:03:02.399Z,99553.13
2022-12-09T05:05:30.735Z,99558.91
2022-12-09T05:07:58.986Z,99552.88
2022-12-09T05:10:27.291Z,99553.66
2022-12-09T05:12:55.594Z,99556.00
2022-12-09T05:15:23.317Z,99557.56
2022-12-09T05:17:51.950Z,99559.09
2022-12-09T05:20:20.431Z,99561.44
2022-12-09T05:22:48.388Z,99563.06
2022-12-09T05:25:16.358Z,99564.63
2022-12-09T05:27:44.496Z,99568.50
2022-12-09T05:30:13.384Z,99570.06
2022-12-09T05:32:42.068Z,99575.09
2022-12-09T05:35:09.861Z,99573.59
2022-12-09T05:37:37.910Z,99578.59
2022-12-09T05:40:07.651Z,99573.69
2022-12-09T05:42:41.305Z,99576.34
2022-12-09T05:45:11.106Z,99569.88
2022-12-09T05:47:39.611Z,99567.97
2022-12-09T05:50:09.224Z,99566.44
2022-12-09T05:52:38.622Z,99572.13
2022-12-09T05:55:09.468Z,99566.34
2022-12-09T05:57:38.033Z,99569.72
2022-12-09T06:00:09.638Z,99563.91
2022-12-09T06:02:40.979Z,99575.34
2022-12-09T06:05:10.224Z,99570.69
2022-12-09T06:07:38.579Z,99567.56
2022-12-09T06:10:07.746Z,99561.44
2022-12-09T06:12:36.375Z,99569.13
2022-12-09T06:15:09.652Z,99567.19
2022-12-09T06:17:39.556Z,99571.88
2022-12-09T06:20:09.479Z,99571.53
2022-12-09T06:22:38.119Z,99576.19
2022-12-09T06:25:06.684Z,99579.28
2022-12-09T06:27:34.989Z,99583.19
2022-12-09T06:30:03.336Z,99577.16
2022-12-09T06:32:32.242Z,99574.09
2022-12-09T06:35:00.497Z,99578.75
2022-12-09T06:37:28.623Z,99578.75
2022-12-09T06:39:56.566Z,99577.22
2022-12-09T06:42:24.861Z,99576.09
2022-12-09T06:44:52.845Z,99582.94
2022-12-09T06:47:21.350Z,99582.13
2022-12-09T06:49:49.581Z,99587.94
2022-12-09T06:52:18.404Z,99582.59
2022-12-09T06:54:46.771Z,99584.13
2022-12-09T06:57:15.003Z,99583.00
2022-12-09T06:59:42.880Z,99571.16
2022-12-09T07:02:11.747Z,99568.84
2022-12-09T07:04:39.713Z,99569.63
2022-12-09T07:07:11.229Z,99565.03
2022-12-09T07:09:39.814Z,99569.28
2022-12-09T07:12:10.472Z,99569.78
2022-12-09T07:14:38.735Z,99568.41
2022-12-09T07:17:08.488Z,99560.50
2022-12-09T07:19:37.179Z,99554.88
2022-12-09T07:22:05.682Z,99558.81
2022-12-09T07:24:33.520Z,99558.06
2022-12-09T07:27:07.519Z,99552.75
2022-12-09T07:29:37.849Z,99545.25
2022-12-09T07:32:06.366Z,99537.69
2022-12-09T07:34:34.180Z,99537.34
2022-12-09T07:37:02.474Z,99538.88
2022-12-09T07:39:30.424Z,99531.72
2022-12-09T07:41:58.932Z,99531.78
2022-12-09T07:44:30.530Z,99523.44
2022-12-09T07:46:58.749Z,99531.22
2022-12-09T07:49:27.338Z,99530.91
2022-12-09T07:51:55.615Z,99532.19
2022-12-09T07:54:23.318Z,99537.28
2022-12-09T07:56:51.365Z,99542.34
2022-12-09T07:59:19.240Z,99546.22
2022-12-09T08:01:48.018Z,99545.88
2022-12-09T08:04:16.385Z,99542.06
2022-12-09T08:06:44.749Z,99548.97
2022-12-09T08:09:13.993Z,99549.38
2022-12-09T08:11:43.485Z,99542.59
2022-12-09T08:14:13.462Z,99535.75
2022-12-09T08:16:43.890Z,99527.78
2022-12-09T08:19:13.318Z,99535.81
2022-12-09T08:21:41.862Z,99521.63
2022-12-09T08:24:12.833Z,99523.59
2022-12-09T08:26:42.196Z,99523.66
2022-12-09T08:29:13.324Z,99517.59
2022-12-09T08:31:43.925Z,99519.97
2022-12-09T08:34:12.393Z,99514.66
2022-12-09T08:36:41.664Z,99514.75
2022-12-09T08:39:10.928Z,99517.13
2022-12-09T08:41:40.289Z,99516.41
2022-12-09T08:44:14.464Z,99504.97
2022-12-09T08:46:47.326Z,99506.94
2022-12-09T08:49:20.328Z,99503.91
2022-12-09T08:51:51.140Z,99513.53
2022-12-09T08:54:20.026Z,99506.69
2022-12-09T08:56:51.518Z,99514.03
2022-12-09T08:59:20.216Z,99517.53
2022-12-09T09:01:48.643Z,99510.66
2022-12-09T09:04:19.701Z,99512.97
2022-12-09T09:06:50.778Z,99500.75
2022-12-09T09:09:21.360Z,99491.56
2022-12-09T09:11:49.701Z,99485.47
2022-12-09T09:14:17.559Z,99480.50
2022-12-09T09:16:46.433Z,99462.53
2022-12-09T09:19:23.396Z,99456.88
2022-12-09T09:21:52.512Z,99451.91
2022-12-09T09:24:24.504Z,99448.09
2022-12-09T09:26:54.012Z,99443.53
2022-12-09T09:29:23.822Z,99451.25
2022-12-09T09:31:56.224Z,99450.53
2022-12-09T09:34:26.981Z,99442.88
2022-12-09T09:36:56.548Z,99425.31
2022-12-09T09:39:24.775Z,99427.69
2022-12-09T09:42:06.280Z,99425.81
2022-12-09T09:44:50.222Z,99418.56
2022-12-09T09:47:45.494Z,99417.81
2022-12-09T09:50:44.712Z,99422.50
2022-12-09T09:53:20.974Z,99409.09
2022-12-09T09:56:01.327Z,99399.56
2022-12-09T09:58:42.038Z,99401.94
2022-12-09T10:01:19.975Z,99398.16
2022-12-09T10:04:22.912Z,99395.88
2022-12-09T10:07:18.039Z,99392.06
2022-12-09T10:10:16.881Z,99378.66
2022-12-09T10:13:22.294Z,99372.56
2022-12-09T10:16:25.191Z,99366.53
2022-12-09T10:19:09.691Z,99370.03
2022-12-09T10:21:44.267Z,99380.44
2022-12-09T10:24:39.934Z,99371.66
2022-12-09T10:27:14.620Z,99364.75
2022-12-09T10:29:57.778Z,99363.25
2022-12-09T10:32:30.091Z,99359.09
2022-12-09T10:34:59.244Z,99361.44
2022-12-09T10:37:36.848Z,99348.75
2022-12-09T10:40:27.790Z,99344.19
2022-12-09T10:43:18.426Z,99339.59
2022-12-09T10:48:57.962Z,99331.94
2022-12-09T10:51:34.746Z,99326.53
2022-12-09T10:54:15.377Z,99318.47
2022-12-09T10:57:12.522Z,99322.69
2022-12-09T10:59:55.385Z,99321.13
2022-12-09T11:02:24.205Z,99319.97
2022-12-09T11:04:52.819Z,99324.19
2022-12-09T11:07:26.958Z,99325.66
2022-12-09T11:09:58.118Z,99323.75
2022-12-09T11:12:33.464Z,99321.44
2022-12-09T11:15:12.597Z,99315.25
2022-12-09T11:17:55.967Z,99322.97
2022-12-09T11:20:29.408Z,99306.81
2022-12-09T11:23:14.468Z,99319.91
2022-12-09T11:26:14.458Z,99309.88
2022-12-09T11:28:42.112Z,99301.81
2022-12-09T11:31:29.467Z,99300.28
2022-12-09T11:34:04.415Z,99274.91
2022-12-09T11:36:44.008Z,99279.13
2022-12-09T11:39:26.269Z,99267.25
2022-12-09T11:42:22.508Z,99262.59
2022-12-09T11:45:05.113Z,99254.16
2022-12-09T11:48:04.628Z,99253.34
2022-12-09T11:50:35.004Z,99247.19
2022-12-09T11:53:12.736Z,99241.06
2022-12-09T11:56:18.458Z,99243.75
2022-12-09T11:59:22.730Z,99220.28
2022-12-09T12:02:17.371Z,99226.78
2022-12-09T12:05:22.797Z,99210.66
2022-12-09T12:08:27.111Z,99210.28
2022-12-09T12:11:07.402Z,99218.72
2022-12-09T12:13:47.222Z,99206.84
2022-12-09T12:16:47.977Z,99208.03
2022-12-09T12:19:31.129Z,99208.81
2022-12-09T12:22:39.495Z,99214.22
2022-12-09T12:25:40.262Z,99208.84
2022-12-09T12:28:46.062Z,99211.16
2022-12-09T12:31:41.383Z,99212.72
2022-12-09T12:34:42.929Z,99201.22
2022-12-09T12:37:19.423Z,99202.03
2022-12-09T12:40:05.021Z,99181.25
2022-12-09T12:43:25.138Z,99186.66
2022-12-09T12:46:19.241Z,99182.81
2022-12-09T12:49:05.398Z,99192.03
2022-12-09T12:52:12.681Z,99177.81
2022-12-09T12:55:36.548Z,99176.63
2022-12-09T12:58:31.628Z,99177.00
2022-12-09T13:01:22.920Z,99177.81
2022-12-09T13:04:27.256Z,99173.56
2022-12-09T13:07:41.924Z,99163.59
2022-12-09T13:10:33.176Z,99160.88
2022-12-09T13:13:02.982Z,99162.03
2022-12-09T13:15:41.165Z,99160.50
2022-12-09T13:18:35.960Z,99164.34
2022-12-09T13:21:07.331Z,99162.41
2022-12-09T13:24:27.198Z,99153.19
2022-12-09T13:27:35.338Z,99161.25
2022-12-09T13:30:20.258Z,99159.72
2022-12-09T13:33:26.554Z,99161.66
2022-12-09T13:36:34.577Z,99152.78
2022-12-09T13:39:05.458Z,99147.38
2022-12-09T13:41:56.016Z,99155.88
2022-12-09T13:44:34.842Z,99153.56
2022-12-09T13:47:26.810Z,99150.50
2022-12-09T13:50:03.860Z,99147.41
2022-12-09T13:53:07.264Z,99151.25
2022-12-09T13:56:03.091Z,99145.50
2022-12-09T13:59:11.593Z,99144.31
2022-12-09T14:01:51.379Z,99154.31
2022-12-09T14:04:28.308Z,99147.38
2022-12-09T14:07:34.162Z,99149.69
2022-12-09T14:10:02.390Z,99141.25
2022-12-09T14:12:30.774Z,99137.41
2022-12-09T14:15:03.086Z,99146.63
2022-12-09T14:17:31.260Z,99148.56
2022-12-09T14:20:26.677Z,99140.47
2022-12-09T14:23:12.619Z,99134.72
2022-12-09T14:25:58.554Z,99127.41
2022-12-09T14:28:40.768Z,99121.25
2022-12-09T14:31:09.325Z,99124.31
2022-12-09T14:33:46.732Z,99123.19
2022-12-09T14:36:14.395Z,99122.78
2022-12-09T14:39:24.882Z,99115.88
2022-12-09T14:42:09.927Z,99117.78
2022-12-09T14:44:49.561Z,99109.72
2022-12-09T14:47:33.074Z,99103.91
2022-12-09T14:50:21.404Z,99097.78
2022-12-09T14:52:57.721Z,99095.84
2022-12-09T14:55:28.263Z,99105.09
2022-12-09T14:58:00.132Z,99097.41
2022-12-09T15:00:36.072Z,99093.16
2022-12-09T15:03:42.571Z,99096.63
2022-12-09T15:06:18.700Z,99087.75
2022-12-09T15:08:48.323Z,99089.69
2022-12-09T15:11:31.759Z,99085.84
2022-12-09T15:14:23.016Z,99082.75
2022-12-09T15:16:52.555Z,99077.38
2022-12-09T15:19:58.565Z,99071.22
2022-12-09T15:22:25.122Z,99079.69
2022-12-09T15:24:53.751Z,99076.63
2022-12-09T15:27:24.878Z,99078.13
2022-12-09T15:29:54.147Z,99054.31
2022-12-09T15:32:30.156Z,99058.91
2022-12-09T15:35:23.951Z,99066.22
2022-12-09T15:37:54.804Z,99058.16
2022-12-09T15:40:22.981Z,99049.69
2022-12-09T15:42:54.403Z,99048.13
2022-12-09T15:45:35.378Z,99040.44
2022-12-09T15:48:18.126Z,99053.53
2022-12-09T15:50:57.387Z,99040.06
2022-12-09T15:53:43.460Z,99048.13
2022-12-09T15:56:42.068Z,99044.31
2022-12-09T15:59:23.861Z,99047.38
2022-12-09T16:01:55.886Z,99028.53
2022-12-09T16:04:32.385Z,99026.59
2022-12-09T16:07:09.162Z,99028.16
2022-12-09T16:09:37.502Z,99024.28
2022-12-09T16:12:23.543Z,99020.47
2022-12-09T16:14:51.637Z,99018.16
2022-12-09T16:17:27.324Z,99013.53
2022-12-09T16:19:56.103Z,99009.69
2022-12-09T16:22:32.059Z,99001.22
2022-12-09T16:25:22.073Z,98997.41
2022-12-09T16:28:01.677Z,99006.63
2022-12-09T16:30:33.479Z,98991.22
2022-12-09T16:33:03.202Z,98992.00
2022-12-09T16:35:39.718Z,98993.53
2022-12-09T16:38:10.385Z,98987.38
2022-12-09T16:40:44.956Z,98989.69
2022-12-09T16:43:19.105Z,98998.16
2022-12-09T16:45:53.548Z,98983.53
2022-12-09T16:48:24.903Z,98980.84
2022-12-09T16:51:03.344Z,98989.28
2022-12-09T16:53:39.227Z,98975.81
2022-12-09T16:56:20.399Z,98978.88
2022-12-09T16:58:48.448Z,98969.66
2022-12-09T17:01:19.513Z,98962.72
2022-12-09T17:03:56.610Z,98968.09
2022-12-09T17:06:25.015Z,98975.78
2022-12-09T17:08:52.696Z,98973.09
2022-12-09T17:11:21.880Z,98976.56
2022-12-09T17:13:50.544Z,98980.78
2022-12-09T17:16:22.291Z,98972.69
2022-12-09T17:18:50.588Z,98983.47
2022-12-09T17:21:19.697Z,98971.94
2022-12-09T17:23:47.502Z,98978.50
2022-12-09T17:26:20.058Z,98981.97
2022-12-09T17:28:49.174Z,98978.09
2022-12-09T17:31:24.018Z,98991.56
2022-12-09T17:33:53.132Z,98977.72
2022-12-09T17:36:21.053Z,98979.28
2022-12-09T17:38:48.717Z,98976.97
2022-12-09T17:41:20.795Z,98975.78
2022-12-09T17:43:48.492Z,98961.53
2022-12-09T17:46:16.870Z,98964.25
2022-12-09T17:48:45.098Z,98965.41
2022-12-09T17:51:18.348Z,98972.31
2022-12-09T17:53:48.879Z,98956.94
2022-12-09T17:56:21.013Z,98959.63
2022-12-09T17:58:59.825Z,98958.84
2022-12-09T18:01:28.361Z,98958.06
2022-12-09T18:04:06.250Z,98955.75
2022-12-09T18:06:46.027Z,98957.31
2022-12-09T18:09:18.177Z,98946.91
2022-12-09T18:11:47.012Z,98945.75
2022-12-09T18:14:16.067Z,98940.38
2022-12-09T18:16:50.020Z,98940.38
2022-12-09T18:19:20.865Z,98933.44
2022-12-09T18:21:48.876Z,98934.19
2022-12-09T18:24:16.549Z,98925.72
2022-12-09T18:26:45.556Z,98924.97
2022-12-09T18:29:13.884Z,98929.97
2022-12-09T18:31:45.836Z,98926.50
2022-12-09T18:34:13.816Z,98919.50
2022-12-09T18:36:42.016Z,98917.22
2022-12-09T18:39:09.886Z,98927.19
2022-12-09T18:41:37.924Z,98933.38
2022-12-09T18:44:08.687Z,98935.69
2022-12-09T18:46:41.103Z,98945.66
2022-12-09T18:49:17.306Z,98937.97
2022-12-09T18:51:47.760Z,98927.19
2022-12-09T18:54:20.595Z,98925.28
2022-12-09T18:56:48.585Z,98937.97
2022-12-09T18:59:16.473Z,98931.81
2022-12-09T19:01:47.666Z,98928.34
2022-12-09T19:04:19.794Z,98933.72
2022-12-09T19:06:50.477Z,98919.06
2022-12-09T19:09:22.908Z,98918.69
2022-12-09T19:11:52.917Z,98915.59
2022-12-09T19:14:23.950Z,98907.91
2022-12-09T19:16:52.725Z,98907.91
2022-12-09T19:19:25.678Z,98925.97
2022-12-09T19:21:54.964Z,98919.78
2022-12-09T19:24:28.767Z,98921.34
2022-12-09T19:26:57.991Z,98929.06
2022-12-09T19:29:27.985Z,98919.44
2022-12-09T19:31:57.377Z,98917.09
2022-12-09T19:34:28.507Z,98914.78
2022-12-09T19:37:00.411Z,98913.25
2022-12-09T19:39:31.504Z,98908.22
2022-12-09T19:42:01.424Z,98908.59
2022-12-09T19:45:00.835Z,98907.84
2022-12-09T19:47:17.920Z,98907.50
2022-12-09T19:49:45.588Z,98902.50
2022-12-09T19:52:14.046Z,98900.19
2022-12-09T19:54:41.718Z,98900.16
2022-12-09T19:57:09.695Z,98912.50
2022-12-09T19:59:37.929Z,98907.88
2022-12-09T20:02:08.019Z,98897.84
2022-12-09T20:04:51.506Z,98902.47
2022-12-09T20:07:20.747Z,98900.94
2022-12-09T20:09:49.238Z,98904.41
2022-12-09T20:12:17.295Z,98904.03
2022-12-09T20:14:45.036Z,98909.41
2022-12-09T20:17:13.048Z,98905.22
2022-12-09T20:19:40.675Z,98903.28
2022-12-09T20:22:08.610Z,98886.34
2022-12-09T20:24:36.235Z,98892.84
2022-12-09T20:27:04.246Z,98887.81
2022-12-09T20:29:37.250Z,98889.34
2022-12-09T20:32:09.086Z,98893.97
2022-12-09T20:34:36.914Z,98888.53
2022-12-09T20:37:05.720Z,98878.50
2022-12-09T20:39:33.418Z,98886.97
2022-12-09T20:42:01.504Z,98886.19
2022-12-09T20:44:29.312Z,98895.47
2022-12-09T20:46:57.591Z,98892.75
2022-12-09T20:49:27.183Z,98891.59
2022-12-09T20:51:55.632Z,98896.97
2022-12-09T20:54:23.801Z,98885.81
2022-12-09T20:56:53.148Z,98893.13
2022-12-09T20:59:20.816Z,98897.38
2022-12-09T21:01:48.947Z,98885.78
2022-12-09T21:04:18.139Z,98888.47
2022-12-09T21:06:46.469Z,98889.25
2022-12-09T21:09:21.956Z,98889.25
2022-12-09T21:11:51.172Z,98883.47
2022-12-09T21:14:19.634Z,98873.06
2022-12-09T21:16:50.681Z,98875.34
2022-12-09T21:19:25.007Z,98871.09
2022-12-09T21:21:54.857Z,98872.25
2022-12-09T21:24:24.314Z,98865.31
2022-12-09T21:26:55.440Z,98860.72
2022-12-09T21:29:31.207Z,98873.06
2022-12-09T21:32:01.861Z,98872.28
2022-12-09T21:34:30.443Z,98875.38
2022-12-09T21:36:58.396Z,98884.66
2022-12-09T21:39:28.089Z,98875.38
2022-12-09T21:41:56.338Z,98883.00
2022-12-09T21:44:25.667Z,98881.00
2022-12-09T21:46:54.028Z,98874.75
2022-12-09T21:49:22.509Z,98882.78
2022-12-09T21:51:50.423Z,98881.91
2022-12-09T21:54:18.043Z,98879.19
2022-12-09T21:56:46.497Z,98871.00
2022-12-09T21:59:14.996Z,98868.25
2022-12-09T22:01:43.965Z,98870.94
2022-12-09T22:04:16.318Z,98876.25
2022-12-09T22:06:49.320Z,98866.56
2022-12-09T22:09:20.853Z,98872.22
2022-12-09T22:11:49.216Z,98870.63
2022-12-09T22:14:17.466Z,98874.44
2022-12-09T22:16:46.558Z,98870.50
2022-12-09T22:19:19.578Z,98871.25
2022-12-09T22:21:48.589Z,98876.59
2022-12-09T22:24:17.668Z,98871.16
2022-12-09T22:26:46.302Z,98870.75
2022-12-09T22:29:17.174Z,98868.06
2022-12-09T22:31:45.959Z,98866.06
2022-12-09T22:34:17.837Z,98851.75
2022-12-09T22:36:48.538Z,98852.53
2022-12-09T22:39:19.262Z,98851.44
2022-12-09T22:41:47.867Z,98858.03
2022-12-09T22:44:19.058Z,98855.44
2022-12-09T22:46:49.132Z,98855.53
2022-12-09T22:49:18.086Z,98846.75
2022-12-09T22:51:47.656Z,98846.91
2022-12-09T22:54:16.098Z,98840.06
2022-12-09T22:56:45.610Z,98847.84
2022-12-09T22:59:14.183Z,98841.03
2022-12-09T23:01:49.082Z,98848.78
2022-12-09T23:04:21.881Z,98835.34
2022-12-09T23:06:51.101Z,98826.16
2022-12-09T23:09:22.663Z,98825.06
2022-12-09T23:11:52.479Z,98825.88
2022-12-09T23:14:20.547Z,98816.28
2022-12-09T23:16:48.421Z,98829.81
2022-12-09T23:19:16.709Z,98821.34
2022-12-09T23:21:44.765Z,98808.66
2022-12-09T23:24:21.045Z,98798.25
2022-12-09T23:26:56.209Z,98795.56
2022-12-09T23:29:24.341Z,98799.81
2022-12-09T23:31:52.959Z,98801.34
2022-12-09T23:34:20.831Z,98802.13
2022-12-09T23:36:48.821Z,98803.72
2022-12-09T23:39:18.808Z,98801.41
2022-12-09T23:41:47.333Z,98803.75
2022-12-09T23:44:18.393Z,98803.38
2022-12-09T23:46:47.908Z,98815.31
2022-12-09T23:49:16.321Z,98802.22
2022-12-09T23:51:45.193Z,98807.63
2022-12-09T23:54:14.991Z,98798.38
2022-12-09T23:56:48.139Z,98799.50
2022-12-09T23:59:17.919Z,98791.03
